Accueil
Images satellite Prévisions 10 joursClimatMétéo marine Cyclones Foudre AéroportsFAQ Actualités A propos
Météo : Europe Afrique Amérique du Nord Amérique du Sud Asie Australie-Océanie Autres
Langues Contact

Carcassonne, France

Aéroport de Carcassonne Salvaza

latitude: 43-13N, longitude: 002-19E, altitude: 130 m


METAR: LFMK 040800Z AUTO 19005KT 150V240 CAVOK 26/17 Q1022
TAF: LFMK 040500Z 0406/0506 09010KT CAVOK BECMG 0407/0409 VRB03KT BECMG 0415/0417 09012KT

Heure: 10:23 (08:23 UTC)

Observation

Le bulletin a été fait il y a 23 minutes, à 08:00 UTC
Vent 5 kt de sud, variant entre sud/sud-est et ouest/sud-ouest
Température 26°C
Humidité 58%
Pression 1022 hPa
Visibilité 10 km ou plus
pas de nuages en-dessous de 1500 mètres et pas de cumulonimbus.

Changer d'unités

Prévision

Le bulletin a été fait il y a 3 heures et 23 minutes, à 05:00 UTC
Prévision valable du 04 à 06 UTC au 05 à 06 UTC
Vent 10 kt de est
Visibilité 10 km ou plus
pas de nuages en-dessous de 1500 mètres et pas de cumulonimbus.
Evoluant progressivement
du 04 à 07 UTC au 04 à 09 UTC
Vent 3 kt de direction variable
Evoluant progressivement
du 04 à 15 UTC au 04 à 17 UTC
Vent 12 kt de est
Les informations qui figurent sur ce site font l'objet d'une clause de non-responsabilité
Météo : Europe Afrique Amérique du Nord Amérique du Sud Asie Australie-Océanie Autres
Images satellite Prévisions 10 joursClimatMétéo marine Cyclones Foudre AéroportsFAQ Langues Contact Actualités A propos